Pagina principale
METAR-TAF:

METAR-TAF

Aeroporti :

Aeroporto di Gran Canaria

Gran Canaria, Spagna

latitudine: 27-56N, longitudine: 015-23W, altezza: 23 m

Osservazione

Il bollettino è stato emesso 28 minuti fa, alle 03:00 UTC
Vento 11 kt da nord
Temperature 18°C
Umidità 68%
Pressione 1019 hPa
Visibilità 10 km o più
Poco nuvoloso ad un'altezza di 4500 ft

METAR: GCLP 270300Z 36011KT 9999 FEW045 18/12 Q1019 NOSIG

Ora: 04:28 (03:28 UTC)

Previsione

Il bollettino è stato emesso 1 ora e 28 minuti fa, alle 02:00 UTC
Previsione valida dal 27 alle 03 UTC al 28 alle 03 UTC
Vento 13 kt da nord
Visibilità 10 km o più
Poco nuvoloso ad un'altezza di 4500 ft

TAF: GCLP 270200Z 2703/2803 36013KT 9999 FEW045 TX24/2714Z TN18/2705Z

Osservazioni e previsioni meteorologiche di più di 4000 aeroporti (messaggi METAR e TAF).

Le stazioni disponibili sono rappresentate dai dischi gialli e rossi sulla carta.

Puntare il mouse per vedere il nome della stazione.

Clicca sopra per visualizzare le osservazioni e previsioni meteorologiche.

Per cambiare la mappa : fare clic sui pulsanti verdi con una croce nera per ingrandire, il pulsante verde con un trattino per diminuire, o sulla freccia verde per le mappe adiacenti.


METAR-TAF: